sensor_id;sensor_type;location;lat;lon;timestamp;P1;durP1;ratioP1;P2;durP2;ratioP2
79348;SDS011;68817;48.110;11.660;2023-12-07T00:01:31;9.50;;;5.82;;
79348;SDS011;68817;48.110;11.660;2023-12-07T00:03:59;10.65;;;6.88;;
79348;SDS011;68817;48.110;11.660;2023-12-07T00:06:24;11.15;;;6.65;;
79348;SDS011;68817;48.110;11.660;2023-12-07T00:08:50;12.13;;;7.18;;
79348;SDS011;68817;48.110;11.660;2023-12-07T00:11:15;11.15;;;6.32;;
79348;SDS011;68817;48.110;11.660;2023-12-07T00:13:41;12.27;;;7.05;;
79348;SDS011;68817;48.110;11.660;2023-12-07T00:16:06;10.90;;;7.18;;
79348;SDS011;68817;48.110;11.660;2023-12-07T00:18:32;11.82;;;6.72;;
79348;SDS011;68817;48.110;11.660;2023-12-07T00:20:57;9.30;;;6.57;;
79348;SDS011;68817;48.110;11.660;2023-12-07T00:23:23;12.27;;;8.13;;
79348;SDS011;68817;48.110;11.660;2023-12-07T00:25:48;12.52;;;6.88;;
79348;SDS011;68817;48.110;11.660;2023-12-07T00:28:14;12.57;;;7.78;;
79348;SDS011;68817;48.110;11.660;2023-12-07T00:30:39;11.43;;;7.28;;
79348;SDS011;68817;48.110;11.660;2023-12-07T00:33:07;12.10;;;7.40;;
79348;SDS011;68817;48.110;11.660;2023-12-07T00:35:32;12.02;;;7.38;;
79348;SDS011;68817;48.110;11.660;2023-12-07T00:37:58;10.30;;;6.63;;
79348;SDS011;68817;48.110;11.660;2023-12-07T00:40:23;13.77;;;7.22;;
79348;SDS011;68817;48.110;11.660;2023-12-07T00:42:49;12.85;;;7.00;;
79348;SDS011;68817;48.110;11.660;2023-12-07T00:45:14;11.48;;;7.18;;
79348;SDS011;68817;48.110;11.660;2023-12-07T00:47:40;12.25;;;7.15;;
79348;SDS011;68817;48.110;11.660;2023-12-07T00:50:05;13.00;;;7.63;;
79348;SDS011;68817;48.110;11.660;2023-12-07T00:52:31;12.73;;;7.18;;
79348;SDS011;68817;48.110;11.660;2023-12-07T00:54:57;14.18;;;7.50;;
79348;SDS011;68817;48.110;11.660;2023-12-07T00:57:22;12.45;;;7.93;;
79348;SDS011;68817;48.110;11.660;2023-12-07T00:59:47;12.85;;;7.10;;
79348;SDS011;68817;48.110;11.660;2023-12-07T01:02:13;12.80;;;7.50;;
79348;SDS011;68817;48.110;11.660;2023-12-07T01:04:38;12.98;;;7.70;;
79348;SDS011;68817;48.110;11.660;2023-12-07T01:07:04;11.75;;;7.50;;
79348;SDS011;68817;48.110;11.660;2023-12-07T01:09:29;14.18;;;7.85;;
79348;SDS011;68817;48.110;11.660;2023-12-07T01:11:55;13.45;;;7.68;;
79348;SDS011;68817;48.110;11.660;2023-12-07T01:14:20;14.65;;;7.60;;
79348;SDS011;68817;48.110;11.660;2023-12-07T01:16:45;12.63;;;7.55;;
79348;SDS011;68817;48.110;11.660;2023-12-07T01:19:11;14.23;;;8.05;;
79348;SDS011;68817;48.110;11.660;2023-12-07T01:21:42;13.93;;;8.07;;
79348;SDS011;68817;48.110;11.660;2023-12-07T01:24:07;12.20;;;7.32;;
79348;SDS011;68817;48.110;11.660;2023-12-07T01:26:33;14.23;;;7.68;;
79348;SDS011;68817;48.110;11.660;2023-12-07T01:28:59;13.88;;;8.55;;
79348;SDS011;68817;48.110;11.660;2023-12-07T01:31:24;11.48;;;7.85;;
79348;SDS011;68817;48.110;11.660;2023-12-07T01:33:49;13.02;;;7.40;;
79348;SDS011;68817;48.110;11.660;2023-12-07T01:36:15;11.38;;;7.35;;
79348;SDS011;68817;48.110;11.660;2023-12-07T01:38:40;13.13;;;7.60;;
79348;SDS011;68817;48.110;11.660;2023-12-07T01:41:06;11.75;;;7.95;;
79348;SDS011;68817;48.110;11.660;2023-12-07T01:43:31;11.32;;;7.47;;
79348;SDS011;68817;48.110;11.660;2023-12-07T01:45:57;15.18;;;8.45;;
79348;SDS011;68817;48.110;11.660;2023-12-07T01:48:23;13.15;;;8.15;;
79348;SDS011;68817;48.110;11.660;2023-12-07T01:50:50;14.90;;;7.93;;
79348;SDS011;68817;48.110;11.660;2023-12-07T01:53:16;12.68;;;7.97;;
79348;SDS011;68817;48.110;11.660;2023-12-07T01:55:42;16.15;;;8.80;;
79348;SDS011;68817;48.110;11.660;2023-12-07T01:58:07;15.85;;;8.70;;
79348;SDS011;68817;48.110;11.660;2023-12-07T02:00:33;16.75;;;8.90;;
79348;SDS011;68817;48.110;11.660;2023-12-07T02:02:58;13.95;;;7.55;;
79348;SDS011;68817;48.110;11.660;2023-12-07T02:05:24;14.63;;;8.07;;
79348;SDS011;68817;48.110;11.660;2023-12-07T02:07:50;15.93;;;8.40;;
79348;SDS011;68817;48.110;11.660;2023-12-07T02:10:16;14.73;;;9.07;;
79348;SDS011;68817;48.110;11.660;2023-12-07T02:12:44;13.30;;;7.88;;
79348;SDS011;68817;48.110;11.660;2023-12-07T02:15:09;13.07;;;7.93;;
79348;SDS011;68817;48.110;11.660;2023-12-07T02:20:12;14.30;;;8.30;;
79348;SDS011;68817;48.110;11.660;2023-12-07T02:23:00;13.50;;;8.18;;
79348;SDS011;68817;48.110;11.660;2023-12-07T02:25:32;14.35;;;8.18;;
79348;SDS011;68817;48.110;11.660;2023-12-07T02:28:02;15.48;;;8.65;;
79348;SDS011;68817;48.110;11.660;2023-12-07T02:30:28;13.35;;;7.45;;
79348;SDS011;68817;48.110;11.660;2023-12-07T02:32:53;15.85;;;9.07;;
79348;SDS011;68817;48.110;11.660;2023-12-07T02:35:19;16.55;;;8.30;;
79348;SDS011;68817;48.110;11.660;2023-12-07T02:37:49;15.80;;;9.30;;
79348;SDS011;68817;48.110;11.660;2023-12-07T02:40:16;15.15;;;8.65;;
79348;SDS011;68817;48.110;11.660;2023-12-07T02:42:47;17.40;;;10.32;;
79348;SDS011;68817;48.110;11.660;2023-12-07T02:45:13;14.38;;;7.80;;
79348;SDS011;68817;48.110;11.660;2023-12-07T02:47:38;16.35;;;9.15;;
79348;SDS011;68817;48.110;11.660;2023-12-07T02:50:04;13.95;;;8.27;;
79348;SDS011;68817;48.110;11.660;2023-12-07T02:52:31;14.77;;;8.20;;
79348;SDS011;68817;48.110;11.660;2023-12-07T02:54:56;15.43;;;8.30;;
79348;SDS011;68817;48.110;11.660;2023-12-07T02:57:22;14.73;;;8.60;;
79348;SDS011;68817;48.110;11.660;2023-12-07T02:59:47;14.18;;;8.32;;
79348;SDS011;68817;48.110;11.660;2023-12-07T03:02:16;14.98;;;7.32;;
79348;SDS011;68817;48.110;11.660;2023-12-07T03:04:41;12.93;;;8.38;;
79348;SDS011;68817;48.110;11.660;2023-12-07T03:07:07;13.70;;;7.65;;
79348;SDS011;68817;48.110;11.660;2023-12-07T03:09:35;14.90;;;8.07;;
79348;SDS011;68817;48.110;11.660;2023-12-07T03:12:00;12.93;;;8.10;;
79348;SDS011;68817;48.110;11.660;2023-12-07T03:14:26;14.23;;;7.90;;
79348;SDS011;68817;48.110;11.660;2023-12-07T03:16:51;13.32;;;7.93;;
79348;SDS011;68817;48.110;11.660;2023-12-07T03:19:17;13.30;;;7.45;;
79348;SDS011;68817;48.110;11.660;2023-12-07T03:21:42;17.85;;;8.38;;
79348;SDS011;68817;48.110;11.660;2023-12-07T03:24:08;13.98;;;7.57;;
79348;SDS011;68817;48.110;11.660;2023-12-07T03:26:34;13.65;;;8.30;;
79348;SDS011;68817;48.110;11.660;2023-12-07T03:28:59;13.20;;;7.03;;
79348;SDS011;68817;48.110;11.660;2023-12-07T03:31:25;14.13;;;7.65;;
79348;SDS011;68817;48.110;11.660;2023-12-07T03:33:50;16.05;;;8.07;;
79348;SDS011;68817;48.110;11.660;2023-12-07T03:36:15;11.38;;;7.57;;
79348;SDS011;68817;48.110;11.660;2023-12-07T03:38:42;14.07;;;7.88;;
79348;SDS011;68817;48.110;11.660;2023-12-07T03:41:07;12.52;;;7.93;;
79348;SDS011;68817;48.110;11.660;2023-12-07T03:43:39;14.90;;;7.47;;
79348;SDS011;68817;48.110;11.660;2023-12-07T03:46:05;14.75;;;8.07;;
79348;SDS011;68817;48.110;11.660;2023-12-07T03:48:31;13.20;;;7.18;;
79348;SDS011;68817;48.110;11.660;2023-12-07T03:51:00;11.57;;;6.75;;
79348;SDS011;68817;48.110;11.660;2023-12-07T03:53:25;15.77;;;8.73;;
79348;SDS011;68817;48.110;11.660;2023-12-07T03:55:51;11.32;;;6.97;;
79348;SDS011;68817;48.110;11.660;2023-12-07T03:58:17;11.77;;;7.03;;
79348;SDS011;68817;48.110;11.660;2023-12-07T04:00:42;11.68;;;7.00;;
79348;SDS011;68817;48.110;11.660;2023-12-07T04:03:08;11.50;;;6.93;;
79348;SDS011;68817;48.110;11.660;2023-12-07T04:05:33;13.30;;;7.45;;
79348;SDS011;68817;48.110;11.660;2023-12-07T04:08:02;11.30;;;6.63;;
79348;SDS011;68817;48.110;11.660;2023-12-07T04:10:32;13.18;;;7.20;;
79348;SDS011;68817;48.110;11.660;2023-12-07T04:12:57;13.30;;;7.32;;
79348;SDS011;68817;48.110;11.660;2023-12-07T04:15:26;12.45;;;6.88;;
79348;SDS011;68817;48.110;11.660;2023-12-07T04:17:51;10.73;;;6.68;;
79348;SDS011;68817;48.110;11.660;2023-12-07T04:20:17;11.70;;;6.72;;
79348;SDS011;68817;48.110;11.660;2023-12-07T04:22:46;12.85;;;7.10;;
79348;SDS011;68817;48.110;11.660;2023-12-07T04:25:11;11.30;;;6.18;;
79348;SDS011;68817;48.110;11.660;2023-12-07T04:27:37;10.82;;;6.72;;
79348;SDS011;68817;48.110;11.660;2023-12-07T04:30:02;12.23;;;7.50;;
79348;SDS011;68817;48.110;11.660;2023-12-07T04:32:32;14.48;;;6.95;;
79348;SDS011;68817;48.110;11.660;2023-12-07T04:34:57;12.15;;;6.60;;
79348;SDS011;68817;48.110;11.660;2023-12-07T04:37:22;10.98;;;6.57;;
79348;SDS011;68817;48.110;11.660;2023-12-07T04:39:48;10.35;;;6.07;;
79348;SDS011;68817;48.110;11.660;2023-12-07T04:42:14;12.00;;;6.47;;
79348;SDS011;68817;48.110;11.660;2023-12-07T04:44:39;13.27;;;6.70;;
79348;SDS011;68817;48.110;11.660;2023-12-07T04:47:05;12.63;;;6.53;;
79348;SDS011;68817;48.110;11.660;2023-12-07T04:49:33;12.50;;;7.50;;
79348;SDS011;68817;48.110;11.660;2023-12-07T04:51:58;11.15;;;6.32;;
79348;SDS011;68817;48.110;11.660;2023-12-07T04:54:24;12.27;;;6.60;;
79348;SDS011;68817;48.110;11.660;2023-12-07T04:56:49;10.82;;;5.90;;
79348;SDS011;68817;48.110;11.660;2023-12-07T04:59:15;11.55;;;6.45;;
79348;SDS011;68817;48.110;11.660;2023-12-07T05:01:46;11.32;;;5.90;;
79348;SDS011;68817;48.110;11.660;2023-12-07T05:04:12;11.65;;;6.57;;
79348;SDS011;68817;48.110;11.660;2023-12-07T05:06:38;9.80;;;5.88;;
79348;SDS011;68817;48.110;11.660;2023-12-07T05:09:03;14.63;;;6.22;;
79348;SDS011;68817;48.110;11.660;2023-12-07T05:11:29;12.05;;;6.35;;
79348;SDS011;68817;48.110;11.660;2023-12-07T05:13:57;12.07;;;6.20;;
79348;SDS011;68817;48.110;11.660;2023-12-07T05:16:22;11.40;;;6.43;;
79348;SDS011;68817;48.110;11.660;2023-12-07T05:18:48;11.65;;;5.82;;
79348;SDS011;68817;48.110;11.660;2023-12-07T05:21:16;11.38;;;5.85;;
79348;SDS011;68817;48.110;11.660;2023-12-07T05:23:41;10.35;;;5.72;;
79348;SDS011;68817;48.110;11.660;2023-12-07T05:26:07;9.90;;;6.13;;
79348;SDS011;68817;48.110;11.660;2023-12-07T05:28:33;11.45;;;6.43;;
79348;SDS011;68817;48.110;11.660;2023-12-07T05:30:58;11.85;;;6.85;;
79348;SDS011;68817;48.110;11.660;2023-12-07T05:33:24;10.52;;;6.10;;
79348;SDS011;68817;48.110;11.660;2023-12-07T05:35:52;10.13;;;5.85;;
79348;SDS011;68817;48.110;11.660;2023-12-07T05:38:18;8.73;;;5.30;;
79348;SDS011;68817;48.110;11.660;2023-12-07T05:40:43;10.40;;;5.90;;
79348;SDS011;68817;48.110;11.660;2023-12-07T05:43:09;10.20;;;6.07;;
79348;SDS011;68817;48.110;11.660;2023-12-07T05:45:34;10.88;;;6.18;;
79348;SDS011;68817;48.110;11.660;2023-12-07T05:47:59;10.45;;;5.65;;
79348;SDS011;68817;48.110;11.660;2023-12-07T05:50:25;11.18;;;6.05;;
79348;SDS011;68817;48.110;11.660;2023-12-07T05:52:51;8.70;;;5.25;;
79348;SDS011;68817;48.110;11.660;2023-12-07T05:55:16;12.35;;;5.95;;
79348;SDS011;68817;48.110;11.660;2023-12-07T05:57:44;12.73;;;5.45;;
79348;SDS011;68817;48.110;11.660;2023-12-07T06:00:10;9.15;;;4.95;;
79348;SDS011;68817;48.110;11.660;2023-12-07T06:02:39;9.38;;;6.10;;
79348;SDS011;68817;48.110;11.660;2023-12-07T06:05:05;11.68;;;5.88;;
79348;SDS011;68817;48.110;11.660;2023-12-07T06:07:31;11.95;;;6.75;;
79348;SDS011;68817;48.110;11.660;2023-12-07T06:09:56;9.88;;;5.75;;
79348;SDS011;68817;48.110;11.660;2023-12-07T06:12:21;11.18;;;6.30;;
79348;SDS011;68817;48.110;11.660;2023-12-07T06:14:47;10.05;;;5.80;;
79348;SDS011;68817;48.110;11.660;2023-12-07T06:17:13;11.52;;;6.53;;
79348;SDS011;68817;48.110;11.660;2023-12-07T06:19:38;9.38;;;5.90;;
79348;SDS011;68817;48.110;11.660;2023-12-07T06:22:04;11.30;;;5.97;;
79348;SDS011;68817;48.110;11.660;2023-12-07T06:24:30;9.88;;;5.95;;
79348;SDS011;68817;48.110;11.660;2023-12-07T06:26:56;10.50;;;5.95;;
79348;SDS011;68817;48.110;11.660;2023-12-07T06:29:22;12.13;;;6.18;;
79348;SDS011;68817;48.110;11.660;2023-12-07T06:31:48;13.05;;;6.72;;
79348;SDS011;68817;48.110;11.660;2023-12-07T06:34:13;11.43;;;5.82;;
79348;SDS011;68817;48.110;11.660;2023-12-07T06:36:38;12.70;;;6.50;;
79348;SDS011;68817;48.110;11.660;2023-12-07T06:39:04;9.35;;;5.57;;
79348;SDS011;68817;48.110;11.660;2023-12-07T06:41:29;10.05;;;6.03;;
79348;SDS011;68817;48.110;11.660;2023-12-07T06:43:55;11.35;;;6.22;;
79348;SDS011;68817;48.110;11.660;2023-12-07T06:46:20;13.30;;;5.90;;
79348;SDS011;68817;48.110;11.660;2023-12-07T06:48:46;9.82;;;5.75;;
79348;SDS011;68817;48.110;11.660;2023-12-07T06:51:11;13.43;;;6.10;;
79348;SDS011;68817;48.110;11.660;2023-12-07T06:53:39;11.60;;;6.07;;
79348;SDS011;68817;48.110;11.660;2023-12-07T06:56:06;11.13;;;6.38;;
79348;SDS011;68817;48.110;11.660;2023-12-07T06:58:32;10.77;;;5.90;;
79348;SDS011;68817;48.110;11.660;2023-12-07T07:00:57;12.55;;;6.65;;
79348;SDS011;68817;48.110;11.660;2023-12-07T07:03:23;12.30;;;6.60;;
79348;SDS011;68817;48.110;11.660;2023-12-07T07:05:49;12.43;;;6.30;;
79348;SDS011;68817;48.110;11.660;2023-12-07T07:08:15;13.35;;;7.82;;
79348;SDS011;68817;48.110;11.660;2023-12-07T07:10:40;13.18;;;6.53;;
79348;SDS011;68817;48.110;11.660;2023-12-07T07:13:06;10.07;;;5.97;;
79348;SDS011;68817;48.110;11.660;2023-12-07T07:15:34;12.25;;;6.60;;
79348;SDS011;68817;48.110;11.660;2023-12-07T07:18:00;11.23;;;6.45;;
79348;SDS011;68817;48.110;11.660;2023-12-07T07:20:26;12.43;;;6.60;;
79348;SDS011;68817;48.110;11.660;2023-12-07T07:22:51;11.00;;;6.00;;
79348;SDS011;68817;48.110;11.660;2023-12-07T07:25:16;13.73;;;6.55;;
79348;SDS011;68817;48.110;11.660;2023-12-07T07:27:44;10.82;;;6.03;;
79348;SDS011;68817;48.110;11.660;2023-12-07T07:30:11;10.13;;;6.10;;
79348;SDS011;68817;48.110;11.660;2023-12-07T07:32:37;10.43;;;5.45;;
79348;SDS011;68817;48.110;11.660;2023-12-07T07:35:02;11.07;;;6.35;;
79348;SDS011;68817;48.110;11.660;2023-12-07T07:37:28;12.07;;;6.40;;
79348;SDS011;68817;48.110;11.660;2023-12-07T07:39:53;13.90;;;6.57;;
79348;SDS011;68817;48.110;11.660;2023-12-07T07:42:18;12.50;;;6.97;;
79348;SDS011;68817;48.110;11.660;2023-12-07T07:44:44;10.35;;;6.00;;
79348;SDS011;68817;48.110;11.660;2023-12-07T07:47:09;12.35;;;6.95;;
79348;SDS011;68817;48.110;11.660;2023-12-07T07:49:34;10.10;;;5.97;;
79348;SDS011;68817;48.110;11.660;2023-12-07T07:52:00;13.02;;;6.15;;
79348;SDS011;68817;48.110;11.660;2023-12-07T07:54:25;12.38;;;6.35;;
79348;SDS011;68817;48.110;11.660;2023-12-07T07:56:51;11.20;;;6.47;;
79348;SDS011;68817;48.110;11.660;2023-12-07T07:59:16;10.88;;;6.45;;
79348;SDS011;68817;48.110;11.660;2023-12-07T08:01:42;11.70;;;6.30;;
79348;SDS011;68817;48.110;11.660;2023-12-07T08:04:07;12.82;;;6.28;;
79348;SDS011;68817;48.110;11.660;2023-12-07T08:06:35;9.98;;;5.93;;
79348;SDS011;68817;48.110;11.660;2023-12-07T08:09:01;11.57;;;6.38;;
79348;SDS011;68817;48.110;11.660;2023-12-07T08:11:26;11.38;;;6.13;;
79348;SDS011;68817;48.110;11.660;2023-12-07T08:13:51;9.50;;;5.22;;
79348;SDS011;68817;48.110;11.660;2023-12-07T08:16:17;11.07;;;6.03;;
79348;SDS011;68817;48.110;11.660;2023-12-07T08:18:44;9.65;;;5.68;;
79348;SDS011;68817;48.110;11.660;2023-12-07T08:21:17;11.70;;;6.82;;
79348;SDS011;68817;48.110;11.660;2023-12-07T08:23:46;10.52;;;6.65;;
79348;SDS011;68817;48.110;11.660;2023-12-07T08:26:11;10.60;;;6.40;;
79348;SDS011;68817;48.110;11.660;2023-12-07T08:28:39;12.43;;;6.25;;
79348;SDS011;68817;48.110;11.660;2023-12-07T08:31:05;12.68;;;6.45;;
79348;SDS011;68817;48.110;11.660;2023-12-07T08:33:31;10.95;;;6.68;;
79348;SDS011;68817;48.110;11.660;2023-12-07T08:35:59;9.55;;;5.65;;
79348;SDS011;68817;48.110;11.660;2023-12-07T08:38:24;11.88;;;5.78;;
79348;SDS011;68817;48.110;11.660;2023-12-07T08:40:50;9.70;;;5.63;;
79348;SDS011;68817;48.110;11.660;2023-12-07T08:43:15;11.57;;;6.03;;
79348;SDS011;68817;48.110;11.660;2023-12-07T08:45:41;12.18;;;7.13;;
79348;SDS011;68817;48.110;11.660;2023-12-07T08:48:06;10.60;;;6.15;;
79348;SDS011;68817;48.110;11.660;2023-12-07T08:50:31;9.45;;;5.63;;
79348;SDS011;68817;48.110;11.660;2023-12-07T08:52:57;8.93;;;6.10;;
79348;SDS011;68817;48.110;11.660;2023-12-07T08:55:22;11.38;;;6.10;;
79348;SDS011;68817;48.110;11.660;2023-12-07T08:57:48;11.52;;;6.07;;
79348;SDS011;68817;48.110;11.660;2023-12-07T09:00:13;9.30;;;6.07;;
79348;SDS011;68817;48.110;11.660;2023-12-07T09:02:39;11.23;;;6.63;;
79348;SDS011;68817;48.110;11.660;2023-12-07T09:05:04;10.10;;;6.15;;
79348;SDS011;68817;48.110;11.660;2023-12-07T09:07:30;8.82;;;5.32;;
79348;SDS011;68817;48.110;11.660;2023-12-07T09:09:55;9.63;;;5.93;;
79348;SDS011;68817;48.110;11.660;2023-12-07T09:12:21;9.95;;;5.13;;
79348;SDS011;68817;48.110;11.660;2023-12-07T09:14:46;10.45;;;6.93;;
79348;SDS011;68817;48.110;11.660;2023-12-07T09:17:12;9.00;;;5.03;;
79348;SDS011;68817;48.110;11.660;2023-12-07T09:19:37;7.22;;;4.75;;
79348;SDS011;68817;48.110;11.660;2023-12-07T09:22:02;8.45;;;4.28;;
79348;SDS011;68817;48.110;11.660;2023-12-07T09:24:28;8.00;;;4.57;;
79348;SDS011;68817;48.110;11.660;2023-12-07T09:26:53;7.85;;;5.38;;
79348;SDS011;68817;48.110;11.660;2023-12-07T09:29:19;8.13;;;4.85;;
79348;SDS011;68817;48.110;11.660;2023-12-07T09:31:44;7.95;;;4.63;;
79348;SDS011;68817;48.110;11.660;2023-12-07T09:34:10;7.35;;;4.40;;
79348;SDS011;68817;48.110;11.660;2023-12-07T09:36:35;7.85;;;4.90;;
79348;SDS011;68817;48.110;11.660;2023-12-07T09:39:00;8.73;;;4.80;;
79348;SDS011;68817;48.110;11.660;2023-12-07T09:41:26;8.55;;;5.15;;
79348;SDS011;68817;48.110;11.660;2023-12-07T09:43:52;9.57;;;4.88;;
79348;SDS011;68817;48.110;11.660;2023-12-07T09:46:18;8.63;;;5.30;;
79348;SDS011;68817;48.110;11.660;2023-12-07T09:48:44;8.20;;;4.90;;
79348;SDS011;68817;48.110;11.660;2023-12-07T09:51:10;7.70;;;4.53;;
79348;SDS011;68817;48.110;11.660;2023-12-07T09:53:36;7.03;;;4.65;;
79348;SDS011;68817;48.110;11.660;2023-12-07T09:56:03;5.03;;;4.18;;
79348;SDS011;68817;48.110;11.660;2023-12-07T09:58:29;7.32;;;3.67;;
79348;SDS011;68817;48.110;11.660;2023-12-07T10:00:55;5.53;;;3.38;;
79348;SDS011;68817;48.110;11.660;2023-12-07T10:03:21;7.10;;;3.70;;
79348;SDS011;68817;48.110;11.660;2023-12-07T10:05:53;7.40;;;4.60;;
79348;SDS011;68817;48.110;11.660;2023-12-07T10:11:03;5.95;;;3.92;;
79348;SDS011;68817;48.110;11.660;2023-12-07T10:13:30;6.13;;;3.90;;
79348;SDS011;68817;48.110;11.660;2023-12-07T10:16:05;6.57;;;4.45;;
79348;SDS011;68817;48.110;11.660;2023-12-07T10:18:31;5.38;;;3.85;;
79348;SDS011;68817;48.110;11.660;2023-12-07T10:20:57;6.40;;;4.03;;
79348;SDS011;68817;48.110;11.660;2023-12-07T10:23:22;5.35;;;3.50;;
79348;SDS011;68817;48.110;11.660;2023-12-07T10:25:50;8.15;;;3.35;;
79348;SDS011;68817;48.110;11.660;2023-12-07T10:28:15;5.15;;;3.40;;
79348;SDS011;68817;48.110;11.660;2023-12-07T10:30:42;7.50;;;3.40;;
79348;SDS011;68817;48.110;11.660;2023-12-07T10:33:09;3.83;;;2.50;;
79348;SDS011;68817;48.110;11.660;2023-12-07T10:35:44;3.55;;;2.42;;
79348;SDS011;68817;48.110;11.660;2023-12-07T10:38:09;3.90;;;2.33;;
79348;SDS011;68817;48.110;11.660;2023-12-07T10:40:35;3.50;;;2.50;;
79348;SDS011;68817;48.110;11.660;2023-12-07T10:43:01;4.22;;;2.17;;
79348;SDS011;68817;48.110;11.660;2023-12-07T10:45:30;4.05;;;1.85;;
79348;SDS011;68817;48.110;11.660;2023-12-07T10:48:03;2.35;;;1.52;;
79348;SDS011;68817;48.110;11.660;2023-12-07T10:54:11;3.05;;;1.60;;
79348;SDS011;68817;48.110;11.660;2023-12-07T10:56:45;1.80;;;1.30;;
79348;SDS011;68817;48.110;11.660;2023-12-07T10:59:11;1.65;;;1.30;;
79348;SDS011;68817;48.110;11.660;2023-12-07T11:01:41;1.80;;;1.30;;
79348;SDS011;68817;48.110;11.660;2023-12-07T11:04:08;2.50;;;1.75;;
79348;SDS011;68817;48.110;11.660;2023-12-07T11:06:36;2.17;;;1.60;;
79348;SDS011;68817;48.110;11.660;2023-12-07T11:09:04;3.00;;;2.15;;
79348;SDS011;68817;48.110;11.660;2023-12-07T11:11:38;5.30;;;2.08;;
79348;SDS011;68817;48.110;11.660;2023-12-07T11:14:08;2.72;;;1.90;;
79348;SDS011;68817;48.110;11.660;2023-12-07T11:16:41;3.03;;;2.05;;
79348;SDS011;68817;48.110;11.660;2023-12-07T11:19:43;3.83;;;2.53;;
79348;SDS011;68817;48.110;11.660;2023-12-07T11:22:10;3.58;;;2.50;;
79348;SDS011;68817;48.110;11.660;2023-12-07T11:24:36;3.38;;;2.70;;
79348;SDS011;68817;48.110;11.660;2023-12-07T11:27:02;3.60;;;2.40;;
79348;SDS011;68817;48.110;11.660;2023-12-07T11:29:28;3.85;;;2.60;;
79348;SDS011;68817;48.110;11.660;2023-12-07T11:32:04;3.78;;;2.55;;
79348;SDS011;68817;48.110;11.660;2023-12-07T11:37:04;3.88;;;2.70;;
79348;SDS011;68817;48.110;11.660;2023-12-07T11:39:36;2.63;;;1.70;;
79348;SDS011;68817;48.110;11.660;2023-12-07T11:42:06;2.55;;;1.67;;
79348;SDS011;68817;48.110;11.660;2023-12-07T11:44:33;2.65;;;1.50;;
79348;SDS011;68817;48.110;11.660;2023-12-07T11:47:00;3.60;;;1.80;;
79348;SDS011;68817;48.110;11.660;2023-12-07T11:49:25;2.05;;;1.50;;
79348;SDS011;68817;48.110;11.660;2023-12-07T11:51:51;2.55;;;1.70;;
79348;SDS011;68817;48.110;11.660;2023-12-07T11:54:17;2.13;;;1.20;;
79348;SDS011;68817;48.110;11.660;2023-12-07T11:56:42;2.25;;;1.52;;
79348;SDS011;68817;48.110;11.660;2023-12-07T11:59:08;5.47;;;1.50;;
79348;SDS011;68817;48.110;11.660;2023-12-07T12:01:33;3.90;;;1.40;;
79348;SDS011;68817;48.110;11.660;2023-12-07T12:03:59;3.08;;;1.60;;
79348;SDS011;68817;48.110;11.660;2023-12-07T12:06:24;3.38;;;1.60;;
79348;SDS011;68817;48.110;11.660;2023-12-07T12:08:51;3.47;;;1.60;;
79348;SDS011;68817;48.110;11.660;2023-12-07T12:11:17;2.03;;;1.40;;
79348;SDS011;68817;48.110;11.660;2023-12-07T12:13:43;3.70;;;1.90;;
79348;SDS011;68817;48.110;11.660;2023-12-07T12:16:10;2.03;;;1.70;;
79348;SDS011;68817;48.110;11.660;2023-12-07T12:18:36;3.13;;;1.80;;
79348;SDS011;68817;48.110;11.660;2023-12-07T12:21:02;2.53;;;1.50;;
79348;SDS011;68817;48.110;11.660;2023-12-07T12:23:28;3.10;;;1.83;;
79348;SDS011;68817;48.110;11.660;2023-12-07T12:25:54;4.57;;;2.00;;
79348;SDS011;68817;48.110;11.660;2023-12-07T12:28:19;3.47;;;1.92;;
79348;SDS011;68817;48.110;11.660;2023-12-07T12:30:47;3.25;;;2.03;;
79348;SDS011;68817;48.110;11.660;2023-12-07T12:33:13;3.00;;;1.88;;
79348;SDS011;68817;48.110;11.660;2023-12-07T12:35:39;3.58;;;2.10;;
79348;SDS011;68817;48.110;11.660;2023-12-07T12:38:08;2.40;;;1.80;;
79348;SDS011;68817;48.110;11.660;2023-12-07T12:40:37;3.53;;;2.40;;
79348;SDS011;68817;48.110;11.660;2023-12-07T12:43:03;2.75;;;1.98;;
79348;SDS011;68817;48.110;11.660;2023-12-07T12:45:28;4.32;;;2.30;;
79348;SDS011;68817;48.110;11.660;2023-12-07T12:47:54;2.58;;;1.83;;
79348;SDS011;68817;48.110;11.660;2023-12-07T12:50:36;2.80;;;1.55;;
79348;SDS011;68817;48.110;11.660;2023-12-07T12:53:05;2.53;;;1.65;;
79348;SDS011;68817;48.110;11.660;2023-12-07T12:55:35;3.05;;;1.70;;
79348;SDS011;68817;48.110;11.660;2023-12-07T12:58:01;2.03;;;1.55;;
79348;SDS011;68817;48.110;11.660;2023-12-07T13:00:29;2.13;;;1.38;;
79348;SDS011;68817;48.110;11.660;2023-12-07T13:02:55;3.95;;;2.20;;
79348;SDS011;68817;48.110;11.660;2023-12-07T13:05:20;3.00;;;1.50;;
79348;SDS011;68817;48.110;11.660;2023-12-07T13:07:46;2.63;;;2.00;;
79348;SDS011;68817;48.110;11.660;2023-12-07T13:10:14;2.70;;;1.85;;
79348;SDS011;68817;48.110;11.660;2023-12-07T13:12:40;2.30;;;1.60;;
79348;SDS011;68817;48.110;11.660;2023-12-07T13:15:05;2.42;;;1.77;;
79348;SDS011;68817;48.110;11.660;2023-12-07T13:17:31;5.07;;;1.92;;
79348;SDS011;68817;48.110;11.660;2023-12-07T13:19:57;3.15;;;2.00;;
79348;SDS011;68817;48.110;11.660;2023-12-07T13:22:22;3.03;;;1.83;;
79348;SDS011;68817;48.110;11.660;2023-12-07T13:24:48;2.85;;;1.92;;
79348;SDS011;68817;48.110;11.660;2023-12-07T13:27:13;2.63;;;1.80;;
79348;SDS011;68817;48.110;11.660;2023-12-07T13:29:40;2.63;;;1.83;;
79348;SDS011;68817;48.110;11.660;2023-12-07T13:32:06;3.55;;;1.73;;
79348;SDS011;68817;48.110;11.660;2023-12-07T13:34:31;3.88;;;1.90;;
79348;SDS011;68817;48.110;11.660;2023-12-07T13:36:57;2.78;;;1.70;;
79348;SDS011;68817;48.110;11.660;2023-12-07T13:39:22;2.40;;;1.90;;
79348;SDS011;68817;48.110;11.660;2023-12-07T13:41:47;2.92;;;2.13;;
79348;SDS011;68817;48.110;11.660;2023-12-07T13:44:15;2.60;;;1.83;;
79348;SDS011;68817;48.110;11.660;2023-12-07T13:46:42;2.38;;;1.70;;
79348;SDS011;68817;48.110;11.660;2023-12-07T13:49:08;3.53;;;2.25;;
79348;SDS011;68817;48.110;11.660;2023-12-07T13:51:33;3.42;;;2.15;;
79348;SDS011;68817;48.110;11.660;2023-12-07T13:53:59;4.15;;;2.20;;
79348;SDS011;68817;48.110;11.660;2023-12-07T13:56:24;3.55;;;2.10;;
79348;SDS011;68817;48.110;11.660;2023-12-07T13:58:49;4.93;;;2.10;;
79348;SDS011;68817;48.110;11.660;2023-12-07T14:01:16;2.58;;;1.80;;
79348;SDS011;68817;48.110;11.660;2023-12-07T14:03:44;3.08;;;2.10;;
79348;SDS011;68817;48.110;11.660;2023-12-07T14:06:10;3.90;;;2.25;;
79348;SDS011;68817;48.110;11.660;2023-12-07T14:08:37;4.93;;;2.10;;
79348;SDS011;68817;48.110;11.660;2023-12-07T14:11:03;3.53;;;2.22;;
79348;SDS011;68817;48.110;11.660;2023-12-07T14:13:29;3.72;;;2.33;;
79348;SDS011;68817;48.110;11.660;2023-12-07T14:15:54;2.58;;;2.28;;
79348;SDS011;68817;48.110;11.660;2023-12-07T14:18:20;3.72;;;2.35;;
79348;SDS011;68817;48.110;11.660;2023-12-07T14:20:45;3.33;;;2.30;;
79348;SDS011;68817;48.110;11.660;2023-12-07T14:23:11;3.70;;;2.40;;
79348;SDS011;68817;48.110;11.660;2023-12-07T14:25:37;4.82;;;2.75;;
79348;SDS011;68817;48.110;11.660;2023-12-07T14:28:05;3.70;;;2.45;;
79348;SDS011;68817;48.110;11.660;2023-12-07T14:30:30;3.33;;;2.33;;
79348;SDS011;68817;48.110;11.660;2023-12-07T14:32:56;4.00;;;2.50;;